Архив погоды в Авангарде Зерносовхозе

Метеограмма Авангард Зерносовхоз
Суббота, 24 Июня
Время местн. Темп Ветер Видим Явления Облачность нижн/средн/верх Атм. давл. Влжн Точка росы ВНГО R Сост. почвы Tg s
Напр Скр Прв ур.ст ур.м изм
19:00 +14.7° В 2 - 10 км слабый ливневый дождь облачно 744 751 -1.6 96% +14° 1 км 12 - - -
16:00 +16.1° С 2 - 10 км слабый ливневый дождь облачно 745 753 -1.4 90% +14.4° 1 км - - - -
13:00 +18.6° С 3 - 20 км - облачно 746 754 -1.4 66% +12.1° 1 км - - - -
10:00 +19.8° В 1 - 20 км - облачно 748 755 -0.5 51% +9.4° - - - - -
07:00 +14.7° С,С-В 1 - 20 км - переменная облачность 748 756 -0.1 69% +9° - 0 Сухая (без трещин) - -
04:00 +11.9° Ю 2 - 20 км - переменная облачность 748 756 -0.5 74% +7.4° - - - - -
01:00 +11.2° Ю 3 - 50 км - переменная облачность 749 757 -0.2 78% +7.6° более 2.5 км - - - -
Пятница, 23 Июня
Время местн. Темп Ветер Видим Явления Облачность нижн/средн/верх Атм. давл. Влжн Точка росы ВНГО R Сост. почвы Tg s
Напр Скр Прв ур.ст ур.м изм
22:00 +13.2° Ю 1 - 50 км - переменная облачность 749 757 +0.2 76% +9° 600 м - - - -
19:00 +20.3° З 2 - 20 км - переменная облачность 749 757 -0.3 45% +7.9° 1 км 0 - - -
16:00 +20.4° З 4 - 20 км - облачно с прояснениями 749 757 -0.5 43% +7.5° 1 км - - - -
13:00 +19.8° З 3 - 20 км - переменная облачность 750 757 +0.2 49% +8.8° 1.5 км - - - -
10:00 +17.5° З 3 - 20 км - облачно с прояснениями 750 757 +0.5 57% +8.8° 1 км - - - -
07:00 +13.3° штиль 0 - 20 км - ясно 749 757 +0.8 82% +10.3° более 2.5 км 0 Влажная (без луж) - -
04:00 +6.5° Ю 1 - 20 км - ясно 748 756 +0.5 97% +6° более 2.5 км - - - -
01:00 +8.4° штиль 0 - 50 км - ясно 748 756 +1.1 96% +7.8° более 2.5 км - - - -
Четверг, 22 Июня
Время местн. Темп Ветер Видим Явления Облачность нижн/средн/верх Атм. давл. Влжн Точка росы ВНГО R Сост. почвы Tg s
Напр Скр Прв ур.ст ур.м изм
22:00 +15.9° С 3 - 50 км - облачно с прояснениями 747 755 +1.5 65% +9.3° 1 км - - - -
19:00 +21.4° З 3 11 20 км - переменная облачность 745 753 +1 41% +7.5° 1 км 0 - - -
16:00 +23.6° З 5 - 20 км - облачно с прояснениями 744 752 +0.1 46% +11.3° 1 км - - - -
13:00 +23.9° З 5 - 20 км - облачно 744 752 -0.4 57% +14.8° 1 км - - - -
10:00 +21° Ю-З 3 - 20 км - облачно 745 752 +0.5 68% +14.9° 1 км - - - -
07:00 +17° Ю-З 1 - 20 км - облачно 744 752 +0.7 85% +14.5° 1 км 0.5 Влажная (без луж) - -
04:00 +15.1° Ю 1 - 20 км небо без изменений {ливневые осадки} облачно 743 751 -0.2 90% +13.4° 1 км - - - -
01:00 +15.9° Ю-В 2 - 50 км небо без изменений {ливневые осадки} переменная облачность 744 751 +0.3 91% +14.5° 1 км - - - -
Среда, 21 Июня
Время местн. Темп Ветер Видим Явления Облачность нижн/средн/верх Атм. давл. Влжн Точка росы ВНГО R Сост. почвы Tg s
Напр Скр Прв ур.ст ур.м изм
22:00 +19.8° Ю,Ю-З 3 - 50 км - переменная облачность 744 751 +0.2 71% +14.5° 1 км - - - -
19:00 +24.2° Ю 2 - 20 км - облачно с прояснениями 744 751 -1.4 55% +14.7° 1 км 0 - - -
16:00 +25.8° Ю-З 4 - 20 км - переменная облачность 745 752 -0.8 46% +13.3° 1 км - - - -